McZena, Ohio
Current Conditions -  °F | °C
As of 3:28 PM on Sunday 25 Jan 2015 (Local Time) from KBJJ Reporting Station
Light Snow Light Snow  
Wind Chill: 20°   Ceiling: 2000
Heat Index: 29°   Visibility: 3mi
Dew Point: 26°   Wind: 10mph
Humidity: 89%   Direction: 60°ENE
Pressure: 29.78"   Gusts: NA
Location:  40.6482°N, 82.138°W
Report Text: KBJJ 252028Z AUTO 06009KT 3SM -SN BR FEW007 BKN020 OVC049 M02/M03 A2978 RMK AO2 P0000 T10171033 TSNO
Loading
Personal Weather Stations






























Interactive Weather Map New forecast layout! Learn more

10-Day Weather Forecast

Advertisements
Track Severe Weather on mobile